Terminal Aerodrome Forecast
Issued by NWS

Home | Current Version | Previous Version | Text Only | Print | Product List | Glossary Off
Versions: 1 2 3 4 5 6 7 8 9 10 11 12 13 14 15 16 17 18 19 20 21 22 23 24 25 26 27 28 29 30 31

000
FTUS43 KLOT 230304 AAA
TAFORD
TAF AMD
KORD 230304Z 2303/2406 21012G18KT P6SM SKC
     FM230700 26008KT 5SM BR SKC
     FM231000 31008KT P6SM SCT250
     FM231300 03012KT P6SM BKN007
     FM231700 04012G18KT P6SM BKN015
     FM232100 04012KT P6SM SCT025
     FM240200 04012KT 4SM -RA BR OVC007=

USA.gov is the U.S. government's official web portal to all federal, state and local government web resources and services.